Date,TemperatureHighF,TemperatureAvgF,TemperatureLowF,DewpointHighF,DewpointAvgF,DewpointLowF,HumidityHigh,HumidityAvg,HumidityLow,PressureMaxIn,PressureMinIn,WindSpeedMaxMPH,WindSpeedAvgMPH,GustSpeedMaxMPH,PrecipitationSumIn
2013-5-1,49.6,40.3,34.5,37.5,28.4,22.6,95,66,38,29.41,29.18,13,3,13,0.00
2013-5-2,53.6,42.4,34.0,51.7,38.5,25.2,95,86,66,29.47,29.26,7,1,7,0.24
2013-5-3,72.7,53.8,36.1,69.6,48.8,20.9,96,84,51,29.53,29.41,7,1,7,0.31
2013-5-4,43.2,38.3,35.2,32.6,27.3,20.1,88,66,43,29.56,29.41,9,4,8,0.00
2013-5-5,50.7,40.0,33.1,32.9,25.6,18.5,90,60,37,29.77,29.56,12,5,12,0.00
2013-5-6,47.3,39.0,33.6,28.3,24.2,20.0,77,57,38,29.88,29.74,14,5,14,0.00
2013-5-7,47.1,39.8,33.1,35.9,28.1,25.0,88,64,45,29.91,29.85,10,3,10,0.00
2013-5-8,57.0,45.8,36.1,38.4,29.5,20.2,95,58,33,29.91,29.83,13,4,13,0.00
2013-5-9,52.2,43.9,36.7,30.6,24.6,19.5,62,47,40,29.91,29.85,9,3,9,0.00
2013-5-10,61.2,49.5,36.0,33.5,28.4,24.6,69,45,33,29.85,29.56,10,4,10,0.00
2013-5-11,54.3,48.2,41.4,52.2,40.7,27.4,95,76,44,29.56,29.24,9,2,9,0.08
2013-5-12,55.4,48.6,43.5,44.9,36.6,30.4,90,65,41,29.24,29.15,10,3,10,0.04
2013-5-13,80.1,53.3,40.8,76.5,41.9,18.3,98,68,36,29.15,29.06,12,3,12,0.00
2013-5-14,50.0,41.7,34.3,23.6,18.4,14.7,52,39,31,29.29,29.12,13,4,13,0.00
2013-5-15,47.3,40.2,33.3,29.9,24.1,18.9,78,54,38,29.35,29.29,13,5,13,0.00
2013-5-16,52.7,43.6,35.1,51.0,41.0,28.5,95,91,73,29.32,29.06,13,4,13,0.31
2013-5-17,62.6,50.4,38.3,60.4,46.3,31.8,97,86,64,29.15,29.00,12,3,12,0.28
2013-5-18,43.3,36.6,30.6,41.3,23.9,13.5,95,63,37,29.77,29.15,14,5,14,0.00
2013-5-19,48.2,38.6,27.0,19.9,16.3,12.0,58,41,31,30.21,29.77,15,4,15,0.04
2013-5-20,49.5,40.4,29.1,32.2,22.9,17.4,83,51,34,30.21,30.15,10,4,10,0.00
2013-5-21,51.1,42.6,36.1,33.7,31.3,28.7,86,65,46,30.18,29.91,10,3,10,0.00
2013-5-22,52.7,45.3,38.8,38.4,34.4,31.4,87,66,52,29.91,29.77,10,5,10,0.00
2013-5-23,49.1,47.7,44.8,37.0,34.4,34.2,72,60,59,29.77,29.77,9,9,9,0.00
2013-5-24,62.2,56.3,44.6,38.0,34.8,31.2,72,45,37,29.77,29.59,13,6,13,0.00
2013-5-25,60.8,50.1,42.1,42.3,36.1,31.6,91,60,38,29.65,29.56,13,4,13,0.00
2013-5-26,68.2,52.1,45.3,65.5,46.6,36.9,98,82,53,29.59,29.50,8,3,8,0.04
2013-5-27,63.0,53.3,43.9,50.6,41.8,36.4,94,67,44,29.53,29.41,13,4,13,0.04
2013-5-28,70.9,57.4,42.6,46.6,39.7,31.2,95,57,32,29.44,29.32,10,4,10,0.00
2013-5-29,72.0,60.0,51.1,42.0,36.4,30.4,53,42,33,29.41,29.29,14,3,14,0.00
2013-5-30,63.0,54.2,45.9,45.8,40.3,36.0,92,62,43,29.65,29.41,12,4,12,0.00
2013-5-31,72.0,55.7,47.8,69.2,49.2,39.7,97,80,49,29.80,29.65,14,3,14,0.00